Terminal Aerodrome Forecast
Issued by NWS

Current Version | Previous Version | Text Only | Print | Product List | Glossary On
Versions: 1 2 3 4 5 6 7 8 9 10 11 12 13 14 15 16 17 18 19 20 21 22 23 24 25 26 27 28 29 30 31 32 33 34 35
000
FTUS41 KCTP 190240 AAA
TAFUNV
TAF AMD
KUNV 190240Z 1903/1924 19005KT P6SM SKC
     FM191030 18005KT P6SM BKN025 WS020/19035KT
     FM191100 20005KT P6SM OVC015 WS020/21043KT
     FM191600 19006KT 4SM -DZ BR SCT007 BKN015=

USA.gov is the U.S. government's official web portal to all federal, state and local government web resources and services.